Edenton, NC (27932)

11:11 AM EDT on August 27, 2016 (GMT -0400)
Edenton | | Change Station

Elev 0 ft 36.10 °N, 76.61 °W | Updated 9 minutes ago

Clear
Clear
84.9 °F
Feels Like 95 °F
N
8.7
Wind Variable Wind from NW
Gusts 15.5 mph

Today
High -- | Low -- °F
--% Chance of Precip.
Yesterday
High -- | Low -- °F
Precip. -- in
Pressure 30.12 in
Visibility 10.0 miles
Clouds Clear
Heat Index 95 °F
Dew Point 77 °F
Humidity 76%
Rainfall 0.00 in
Snow Depth Not available.
6:34 AM 7:40 PM
Waning Crescent, 24% visible
METAR KEDE 271500Z AUTO 01004KT 10SM CLR 31/24 A3012 RMK AO2 T03120236
Pressure 30.12 in
Visibility 10.0 miles
Clouds Clear
Heat Index 95 °F
Dew Point 77 °F
Humidity 76%
Rainfall 0.00 in
Snow Depth Not available.
6:34 AM 7:40 PM
Waning Crescent, 24% visible
METAR KEDE 271500Z AUTO 01004KT 10SM CLR 31/24 A3012 RMK AO2 T03120236

10-Day Weather Forecast

Almanac

Astronomy

Aug. 27, 2016 Rise Set
Actual Time
Civil Twilight
Nautical Twilight
Astronomical Twilight
Moon
Length of Visible Light
Length of Day
Tomorrow will be .
, % of the Moon is Illuminated

Today's Extremes

State Highs State Lows

Community

WunderPhotos

Upload Photos

1,935,354 photos uploaded!

WunderBlog® & News

Nearby

Air Quality

  Air Quality AQ Index Pollutant
Not available.

Snow Depth

Station Depth Elevation

Earthquake Activity

City Distance Mag. Time & Date
Minimum magnitude displayed is 2.5.

Coastal Water Temperatures

Place Temperature

Stations

Nearby Weather Stations

Station Location Temp. Windchill Dew Point Humidity Wind Precip. Elev Updated Type
                   

Watches & Warnings

There are currently no watches in effect.